createdAt,value
2023-03-15T00:01:47.964Z,43.16
2023-03-15T00:04:15.876Z,43.63
2023-03-15T00:06:43.780Z,43.93
2023-03-15T00:09:11.754Z,44.32
2023-03-15T00:11:39.754Z,44.52
2023-03-15T00:14:07.675Z,44.96
2023-03-15T00:16:35.614Z,44.87
2023-03-15T00:19:04.934Z,45.39
2023-03-15T00:21:32.824Z,45.75
2023-03-15T00:24:00.771Z,46.11
2023-03-15T00:26:28.884Z,46.26
2023-03-15T00:28:56.854Z,47.49
2023-03-15T00:31:25.937Z,47.12
2023-03-15T00:33:54.843Z,47.69
2023-03-15T00:36:24.767Z,48.22
2023-03-15T00:38:53.399Z,48.25
2023-03-15T00:41:21.802Z,48.21
2023-03-15T00:43:49.861Z,48.43
2023-03-15T00:46:18.013Z,48.99
2023-03-15T00:48:49.019Z,48.71
2023-03-15T00:51:17.656Z,49.18
2023-03-15T00:53:47.249Z,49.39
2023-03-15T00:56:16.141Z,49.33
2023-03-15T00:58:44.255Z,50.10
2023-03-15T01:01:13.578Z,49.74
2023-03-15T01:03:41.872Z,50.54
2023-03-15T01:06:10.955Z,51.26
2023-03-15T01:08:38.908Z,50.71
2023-03-15T01:11:09.088Z,50.39
2023-03-15T01:13:37.256Z,50.17
2023-03-15T01:16:05.780Z,51.75
2023-03-15T01:18:33.781Z,52.46
2023-03-15T01:21:01.748Z,52.03
2023-03-15T01:23:29.708Z,52.13
2023-03-15T01:26:00.716Z,53.83
2023-03-15T01:28:30.070Z,52.73
2023-03-15T01:30:59.860Z,53.21
2023-03-15T01:33:28.118Z,53.42
2023-03-15T01:36:02.193Z,53.96
2023-03-15T01:38:30.237Z,54.73
2023-03-15T01:40:58.195Z,55.41
2023-03-15T01:43:26.582Z,55.95
2023-03-15T01:46:01.353Z,56.06
2023-03-15T01:48:30.888Z,56.81
2023-03-15T01:50:58.804Z,57.73
2023-03-15T01:53:26.878Z,58.21
2023-03-15T01:55:54.796Z,59.13
2023-03-15T01:58:22.727Z,61.04
2023-03-15T02:00:52.987Z,60.06
2023-03-15T02:03:24.078Z,59.75
2023-03-15T02:05:54.821Z,58.42
2023-03-15T02:08:22.951Z,58.48
2023-03-15T02:10:51.993Z,57.48
2023-03-15T02:13:22.800Z,57.75
2023-03-15T02:15:50.802Z,57.88
2023-03-15T02:18:18.715Z,58.74
2023-03-15T02:20:50.224Z,59.19
2023-03-15T02:23:19.236Z,59.31
2023-03-15T02:25:49.683Z,59.70
2023-03-15T02:28:19.602Z,60.02
2023-03-15T02:30:47.645Z,59.31
2023-03-15T02:33:17.293Z,59.49
2023-03-15T02:35:45.281Z,59.88
2023-03-15T02:38:13.300Z,62.68
2023-03-15T02:40:41.292Z,60.28
2023-03-15T02:43:11.586Z,60.55
2023-03-15T02:45:40.952Z,59.85
2023-03-15T02:48:08.946Z,61.27
2023-03-15T02:50:36.930Z,61.31
2023-03-15T02:53:04.904Z,61.54
2023-03-15T02:55:33.205Z,61.50
2023-03-15T02:58:01.181Z,62.10
2023-03-15T03:00:29.580Z,62.12
2023-03-15T03:02:58.938Z,63.47
2023-03-15T03:05:26.964Z,63.67
2023-03-15T03:07:55.236Z,62.31
2023-03-15T03:10:23.318Z,61.82
2023-03-15T03:12:53.677Z,63.68
2023-03-15T03:15:21.998Z,63.12
2023-03-15T03:17:49.958Z,62.68
2023-03-15T03:20:19.512Z,62.17
2023-03-15T03:22:47.499Z,61.76
2023-03-15T03:25:15.488Z,63.75
2023-03-15T03:27:44.101Z,63.40
2023-03-15T03:30:14.260Z,64.34
2023-03-15T03:32:42.440Z,63.52
2023-03-15T03:35:10.859Z,63.21
2023-03-15T03:37:40.186Z,61.96
2023-03-15T03:40:09.750Z,63.24
2023-03-15T03:42:37.657Z,62.79
2023-03-15T03:45:06.288Z,65.22
2023-03-15T03:47:34.225Z,63.86
2023-03-15T03:50:02.200Z,63.16
2023-03-15T03:52:30.398Z,65.86
2023-03-15T03:54:59.762Z,64.95
2023-03-15T03:57:27.676Z,64.45
2023-03-15T03:59:55.602Z,67.24
2023-03-15T04:02:23.593Z,68.75
2023-03-15T04:04:51.557Z,68.77
2023-03-15T04:07:19.524Z,71.22
2023-03-15T04:09:47.472Z,70.75
2023-03-15T04:12:16.838Z,70.06
2023-03-15T04:14:44.817Z,70.16
2023-03-15T04:17:12.732Z,70.52
2023-03-15T04:19:40.654Z,69.98
2023-03-15T04:22:08.786Z,68.60
2023-03-15T04:24:36.759Z,69.38
2023-03-15T04:27:05.609Z,68.88
2023-03-15T04:29:34.990Z,68.76
2023-03-15T04:32:02.927Z,67.42
2023-03-15T04:34:30.956Z,67.43
2023-03-15T04:36:58.944Z,69.25
2023-03-15T04:39:26.861Z,69.44
2023-03-15T04:41:55.626Z,69.55
2023-03-15T04:44:26.616Z,69.59
2023-03-15T04:46:56.283Z,68.31
2023-03-15T04:49:24.267Z,66.89
2023-03-15T04:51:52.260Z,65.75
2023-03-15T04:54:20.241Z,63.99
2023-03-15T04:56:48.190Z,62.63
2023-03-15T04:59:16.153Z,62.32
2023-03-15T05:01:44.138Z,61.64
2023-03-15T05:04:13.950Z,60.93
2023-03-15T05:06:41.899Z,58.99
2023-03-15T05:09:09.848Z,57.52
2023-03-15T05:11:37.865Z,55.01
2023-03-15T05:14:05.776Z,50.56
2023-03-15T05:16:33.808Z,46.57
2023-03-15T05:19:01.757Z,45.09
2023-03-15T05:21:32.805Z,45.48
2023-03-15T05:24:00.762Z,45.91
2023-03-15T05:26:28.677Z,46.81
2023-03-15T05:28:56.654Z,47.76
2023-03-15T05:31:24.715Z,48.58
2023-03-15T05:33:54.489Z,48.39
2023-03-15T05:36:22.481Z,48.57
2023-03-15T05:38:51.841Z,49.33
2023-03-15T05:41:19.860Z,48.24
2023-03-15T05:43:47.846Z,48.71
2023-03-15T05:46:15.879Z,47.63
2023-03-15T05:48:43.889Z,47.37
2023-03-15T05:51:13.268Z,47.76
2023-03-15T05:53:41.357Z,47.90
2023-03-15T05:56:10.931Z,46.82
2023-03-15T05:58:38.900Z,47.35
2023-03-15T06:01:06.958Z,47.76
2023-03-15T06:03:34.922Z,46.03
2023-03-15T06:06:03.475Z,46.15
2023-03-15T06:08:31.415Z,45.14
2023-03-15T06:10:59.373Z,44.52
2023-03-15T06:13:28.743Z,43.82
2023-03-15T06:15:56.712Z,43.49
2023-03-15T06:18:24.645Z,42.77
2023-03-15T06:20:52.632Z,42.84
2023-03-15T06:23:20.611Z,43.04
2023-03-15T06:25:48.563Z,42.99
2023-03-15T06:28:16.585Z,42.33
2023-03-15T06:30:45.996Z,42.22
2023-03-15T06:33:14.015Z,41.74
2023-03-15T06:35:42.262Z,41.26
2023-03-15T06:38:11.959Z,40.70
2023-03-15T06:40:40.033Z,39.58
2023-03-15T06:43:08.324Z,39.72
2023-03-15T06:45:36.293Z,38.40
2023-03-15T06:48:06.047Z,37.27
2023-03-15T06:50:46.002Z,37.63
2023-03-15T06:53:14.742Z,36.77
2023-03-15T06:55:42.915Z,36.80
2023-03-15T06:58:10.937Z,36.10
2023-03-15T07:00:38.921Z,36.93
2023-03-15T07:03:08.287Z,36.48
2023-03-15T07:05:37.172Z,36.59
2023-03-15T07:08:05.426Z,36.70
2023-03-15T07:10:33.383Z,36.38
2023-03-15T07:13:01.339Z,36.31
2023-03-15T07:15:29.600Z,36.73
2023-03-15T07:17:57.555Z,37.18
2023-03-15T07:20:26.903Z,37.09
2023-03-15T07:22:54.846Z,36.60
2023-03-15T07:25:24.140Z,36.62
2023-03-15T07:27:52.183Z,37.26
2023-03-15T07:30:20.360Z,37.53
2023-03-15T07:32:48.448Z,37.20
2023-03-15T07:35:18.185Z,36.78
2023-03-15T07:37:47.594Z,36.85
2023-03-15T07:40:16.345Z,35.59
2023-03-15T07:42:44.412Z,35.00
2023-03-15T07:45:12.977Z,34.69
2023-03-15T07:47:41.064Z,34.36
2023-03-15T07:50:10.215Z,34.82
2023-03-15T07:52:38.162Z,34.68
2023-03-15T07:55:08.965Z,34.65
2023-03-15T07:57:36.921Z,34.96
2023-03-15T08:00:06.202Z,35.07
2023-03-15T08:02:34.195Z,35.42
2023-03-15T08:05:02.149Z,35.36
2023-03-15T08:07:30.049Z,35.43
2023-03-15T08:09:58.107Z,36.11
2023-03-15T08:12:27.450Z,35.73
2023-03-15T08:14:55.399Z,35.30
2023-03-15T08:17:23.318Z,35.56
2023-03-15T08:19:51.302Z,35.76
2023-03-15T08:22:19.271Z,36.28
2023-03-15T08:24:47.243Z,35.75
2023-03-15T08:27:15.220Z,35.71
2023-03-15T08:29:44.513Z,35.52
2023-03-15T08:32:13.072Z,36.08
2023-03-15T08:34:41.566Z,36.18
2023-03-15T08:37:11.928Z,36.04
2023-03-15T08:39:39.917Z,36.32
2023-03-15T08:42:07.962Z,36.24
2023-03-15T08:44:36.403Z,36.23
2023-03-15T08:47:06.331Z,36.95
2023-03-15T08:49:34.652Z,37.02
2023-03-15T08:52:02.625Z,36.76
2023-03-15T08:54:30.536Z,36.47
2023-03-15T08:56:59.608Z,36.07
2023-03-15T08:59:32.071Z,35.20
2023-03-15T09:02:01.157Z,35.07
2023-03-15T09:04:30.984Z,36.05
2023-03-15T09:06:59.001Z,35.73
2023-03-15T09:09:27.159Z,36.51
2023-03-15T09:11:56.261Z,36.31
2023-03-15T09:14:24.263Z,35.63
2023-03-15T09:16:52.292Z,35.63
2023-03-15T09:19:20.322Z,35.61
2023-03-15T09:21:49.611Z,35.57
2023-03-15T09:24:17.565Z,35.87
2023-03-15T09:26:45.729Z,35.04
2023-03-15T09:29:14.209Z,34.37
2023-03-15T09:31:42.179Z,33.78
2023-03-15T09:34:10.502Z,33.72
2023-03-15T09:36:38.481Z,32.88
2023-03-15T09:39:08.477Z,32.56
2023-03-15T09:41:42.876Z,31.78
2023-03-15T09:44:16.988Z,31.57
2023-03-15T09:46:48.279Z,30.30
2023-03-15T09:49:18.819Z,29.62
2023-03-15T09:51:48.504Z,29.98
2023-03-15T09:54:19.476Z,29.63
2023-03-15T09:56:51.601Z,29.65
2023-03-15T09:59:22.862Z,29.81
2023-03-15T10:01:50.996Z,30.48
2023-03-15T10:04:23.695Z,31.29
2023-03-15T10:06:54.825Z,30.69
2023-03-15T10:09:24.966Z,30.00
2023-03-15T10:12:00.343Z,30.31
2023-03-15T10:14:33.818Z,30.47
2023-03-15T10:17:01.757Z,29.27
2023-03-15T10:19:33.354Z,29.76
2023-03-15T10:22:02.686Z,28.89
2023-03-15T10:24:36.207Z,28.88
2023-03-15T10:27:10.918Z,29.25
2023-03-15T10:29:38.836Z,29.49
2023-03-15T10:32:07.397Z,29.56
2023-03-15T10:34:35.415Z,29.42
2023-03-15T10:37:06.380Z,29.83
2023-03-15T10:39:35.676Z,29.04
2023-03-15T10:42:03.952Z,29.21
2023-03-15T10:44:31.908Z,28.31
2023-03-15T10:47:05.050Z,27.74
2023-03-15T10:49:38.890Z,27.13
2023-03-15T10:52:06.955Z,24.77
2023-03-15T10:54:36.282Z,23.40
2023-03-15T10:57:05.377Z,25.40
2023-03-15T10:59:34.145Z,26.06
2023-03-15T11:02:21.259Z,26.08
2023-03-15T11:04:50.225Z,26.73
2023-03-15T11:07:18.545Z,26.20
2023-03-15T11:09:53.297Z,26.05
2023-03-15T11:12:24.231Z,26.44
2023-03-15T11:14:53.755Z,26.34
2023-03-15T11:17:22.612Z,26.43
2023-03-15T11:19:55.502Z,26.48
2023-03-15T11:22:23.544Z,27.77
2023-03-15T11:24:54.565Z,27.39
2023-03-15T11:27:23.735Z,26.96
2023-03-15T11:29:53.015Z,26.54
2023-03-15T11:32:22.219Z,26.86
2023-03-15T11:34:55.312Z,28.02
2023-03-15T11:37:24.081Z,25.99
2023-03-15T11:40:05.069Z,26.57
2023-03-15T11:42:40.283Z,26.28
2023-03-15T11:45:13.329Z,23.83
2023-03-15T11:47:43.515Z,21.75
2023-03-15T11:50:13.223Z,20.02
2023-03-15T11:52:41.404Z,20.03
2023-03-15T11:55:18.947Z,20.05
2023-03-15T11:57:47.110Z,18.74
2023-03-15T12:00:21.828Z,18.31
2023-03-15T12:02:51.007Z,18.20
2023-03-15T12:05:44.134Z,17.97
2023-03-15T12:08:20.046Z,19.02
2023-03-15T12:10:49.872Z,18.38
2023-03-15T12:13:25.158Z,19.88
2023-03-15T12:15:53.312Z,20.41
2023-03-15T12:18:29.593Z,19.52
2023-03-15T12:21:17.320Z,19.72
2023-03-15T12:23:47.668Z,19.27
2023-03-15T12:26:24.682Z,19.77
2023-03-15T12:28:53.972Z,19.80
2023-03-15T12:31:21.962Z,19.86
2023-03-15T12:33:50.859Z,19.30
2023-03-15T12:36:25.473Z,20.77
2023-03-15T12:39:00.973Z,21.85
2023-03-15T12:41:39.070Z,23.02
2023-03-15T12:44:34.896Z,24.35
2023-03-15T12:47:02.990Z,26.49
2023-03-15T12:49:36.133Z,27.45
2023-03-15T12:52:05.260Z,28.46
2023-03-15T12:54:38.492Z,29.68
2023-03-15T12:57:07.954Z,29.73
2023-03-15T12:59:42.113Z,29.94
2023-03-15T13:02:35.685Z,33.24
2023-03-15T13:05:24.751Z,34.09
2023-03-15T13:07:59.364Z,34.82
2023-03-15T13:10:39.249Z,35.03
2023-03-15T13:13:18.105Z,35.63
2023-03-15T13:15:49.289Z,35.67
2023-03-15T13:18:19.501Z,35.76
2023-03-15T13:20:52.854Z,36.09
2023-03-15T13:23:23.600Z,36.70
2023-03-15T13:26:05.307Z,37.16
2023-03-15T13:28:37.399Z,37.49
2023-03-15T13:31:13.309Z,37.65
2023-03-15T13:33:41.314Z,37.53
2023-03-15T13:36:14.998Z,38.07
2023-03-15T13:38:43.596Z,38.56
2023-03-15T13:41:17.485Z,39.00
2023-03-15T13:43:47.161Z,38.52
2023-03-15T13:46:15.098Z,38.22
2023-03-15T13:48:43.744Z,37.81
2023-03-15T13:51:16.126Z,37.69
2023-03-15T13:53:49.980Z,38.13
2023-03-15T13:56:19.381Z,37.81
2023-03-15T13:58:48.695Z,37.54
2023-03-15T14:01:16.615Z,37.28
2023-03-15T14:03:44.615Z,37.02
2023-03-15T14:06:13.658Z,36.96
2023-03-15T14:08:41.680Z,37.43
2023-03-15T14:11:12.430Z,37.76
2023-03-15T14:13:50.188Z,37.75
2023-03-15T14:16:19.254Z,38.07
2023-03-15T14:18:51.368Z,37.82
2023-03-15T14:21:21.008Z,37.54
2023-03-15T14:23:49.906Z,38.02
2023-03-15T14:26:18.794Z,38.24
2023-03-15T14:28:52.167Z,38.68
2023-03-15T14:31:24.412Z,38.93
2023-03-15T14:33:55.896Z,39.48
2023-03-15T14:36:24.901Z,39.16
2023-03-15T14:38:53.402Z,39.87
2023-03-15T14:41:26.674Z,40.20
2023-03-15T14:43:55.965Z,39.46
2023-03-15T14:46:23.886Z,40.01
2023-03-15T14:48:51.853Z,39.41
2023-03-15T14:51:21.119Z,40.06
2023-03-15T14:53:50.657Z,40.67
2023-03-15T14:56:19.896Z,41.24
2023-03-15T14:58:49.536Z,42.25
2023-03-15T15:01:22.457Z,42.52
2023-03-15T15:03:52.549Z,43.21
2023-03-15T15:06:21.874Z,43.59
2023-03-15T15:08:49.844Z,44.38
2023-03-15T15:11:17.787Z,44.50
2023-03-15T15:13:45.799Z,45.06
2023-03-15T15:16:13.790Z,44.94
2023-03-15T15:18:43.140Z,45.83
2023-03-15T15:21:14.104Z,45.66
2023-03-15T15:23:56.945Z,45.70
2023-03-15T15:26:27.221Z,46.36
2023-03-15T15:28:55.363Z,46.29
2023-03-15T15:31:24.415Z,46.13
2023-03-15T15:33:54.262Z,46.78
2023-03-15T15:36:23.788Z,46.94
2023-03-15T15:38:51.756Z,47.23
2023-03-15T15:41:22.320Z,47.83
2023-03-15T15:43:50.258Z,47.75
2023-03-15T15:46:18.238Z,48.43
2023-03-15T15:48:46.180Z,48.94
2023-03-15T15:51:21.942Z,49.64
2023-03-15T15:53:49.880Z,50.17
2023-03-15T15:56:18.414Z,50.49
2023-03-15T15:58:46.395Z,51.63
2023-03-15T16:01:14.718Z,51.47
2023-03-15T16:03:43.019Z,51.86
2023-03-15T16:06:17.761Z,52.67
2023-03-15T16:08:45.736Z,53.00
2023-03-15T16:11:14.402Z,53.55
2023-03-15T16:13:42.318Z,54.81
2023-03-15T16:16:13.618Z,55.08
2023-03-15T16:18:41.634Z,55.90
2023-03-15T16:21:12.648Z,56.10
2023-03-15T16:23:42.017Z,56.34
2023-03-15T16:26:10.887Z,56.79
2023-03-15T16:28:38.862Z,57.77
2023-03-15T16:31:07.213Z,57.40
2023-03-15T16:33:35.296Z,57.78
2023-03-15T16:36:03.229Z,58.21
2023-03-15T16:38:32.390Z,57.84
2023-03-15T16:41:02.036Z,58.99
2023-03-15T16:43:29.994Z,59.94
2023-03-15T16:45:57.948Z,60.70
2023-03-15T16:48:25.912Z,60.72
2023-03-15T16:50:55.418Z,61.15
2023-03-15T16:53:25.334Z,61.12
2023-03-15T16:55:53.308Z,61.23
2023-03-15T16:58:22.640Z,62.02
2023-03-15T17:00:50.665Z,61.27
2023-03-15T17:03:18.654Z,62.60
2023-03-15T17:05:47.188Z,63.24
2023-03-15T17:08:16.658Z,63.40
2023-03-15T17:10:44.633Z,63.16
2023-03-15T17:13:14.852Z,63.33
2023-03-15T17:15:44.279Z,63.22
2023-03-15T17:18:16.309Z,63.92
2023-03-15T17:20:44.265Z,63.58
2023-03-15T17:23:12.704Z,64.60
2023-03-15T17:25:41.202Z,63.99
2023-03-15T17:28:09.125Z,63.90
2023-03-15T17:30:38.019Z,63.81
2023-03-15T17:33:07.432Z,63.32
2023-03-15T17:35:36.140Z,62.54
2023-03-15T17:38:04.298Z,62.31
2023-03-15T17:40:32.979Z,62.53
2023-03-15T17:43:01.883Z,62.00
2023-03-15T17:45:30.935Z,62.16
2023-03-15T17:47:59.601Z,62.32
2023-03-15T17:50:29.786Z,62.36
2023-03-15T17:52:58.359Z,61.65
2023-03-15T17:55:27.473Z,62.52
2023-03-15T17:57:55.800Z,62.99
2023-03-15T18:00:24.978Z,62.80
2023-03-15T18:02:56.031Z,62.91
2023-03-15T18:05:25.472Z,62.15
2023-03-15T18:08:01.926Z,63.13
2023-03-15T18:10:32.745Z,63.33
2023-03-15T18:13:00.733Z,63.04
2023-03-15T18:15:28.758Z,64.20
2023-03-15T18:17:56.709Z,63.73
2023-03-15T18:20:25.955Z,63.40
2023-03-15T18:22:55.327Z,64.73
2023-03-15T18:25:24.449Z,63.87
2023-03-15T18:27:52.426Z,65.47
2023-03-15T18:30:21.177Z,65.42
2023-03-15T18:32:49.153Z,65.42
2023-03-15T18:35:19.004Z,64.73
2023-03-15T18:37:46.978Z,64.93
2023-03-15T18:40:17.548Z,64.73
2023-03-15T18:42:45.589Z,65.97
2023-03-15T18:45:17.428Z,65.45
2023-03-15T18:47:45.392Z,65.01
2023-03-15T18:50:13.525Z,65.33
2023-03-15T18:52:41.545Z,64.64
2023-03-15T18:55:10.105Z,65.36
2023-03-15T18:57:41.550Z,65.69
2023-03-15T19:00:13.728Z,66.22
2023-03-15T19:02:42.112Z,65.56
2023-03-15T19:05:10.592Z,66.15
2023-03-15T19:07:38.714Z,65.80
2023-03-15T19:10:07.581Z,65.42
2023-03-15T19:12:35.835Z,66.03
2023-03-15T19:15:05.712Z,65.91
2023-03-15T19:17:33.735Z,66.22
2023-03-15T19:20:01.705Z,65.96
2023-03-15T19:22:31.129Z,65.90
2023-03-15T19:24:59.095Z,66.74
2023-03-15T19:27:27.340Z,66.23
2023-03-15T19:29:55.319Z,66.02
2023-03-15T19:32:24.713Z,66.67
2023-03-15T19:34:52.665Z,66.51
2023-03-15T19:37:20.579Z,67.16
2023-03-15T19:39:49.394Z,66.26
2023-03-15T19:42:17.322Z,66.41
2023-03-15T19:44:47.425Z,67.73
2023-03-15T19:47:15.427Z,69.58
2023-03-15T19:49:44.717Z,68.83
2023-03-15T19:52:14.510Z,69.05
2023-03-15T19:54:42.426Z,69.60
2023-03-15T19:57:10.364Z,70.36
2023-03-15T19:59:40.047Z,71.15
2023-03-15T20:02:08.355Z,71.07
2023-03-15T20:04:36.887Z,71.63
2023-03-15T20:07:06.262Z,72.09
2023-03-15T20:09:38.075Z,73.15
2023-03-15T20:12:06.826Z,74.02
2023-03-15T20:14:34.788Z,74.29
2023-03-15T20:17:03.353Z,74.40
2023-03-15T20:19:31.383Z,73.81
2023-03-15T20:21:59.307Z,73.49
2023-03-15T20:24:28.613Z,73.97
2023-03-15T20:26:56.627Z,74.64
2023-03-15T20:29:24.599Z,76.30
2023-03-15T20:31:53.440Z,77.74
2023-03-15T20:34:22.112Z,78.55
2023-03-15T20:36:50.067Z,78.24
2023-03-15T20:39:18.487Z,77.15
2023-03-15T20:41:47.875Z,77.84
2023-03-15T20:44:15.773Z,78.34
2023-03-15T20:46:43.864Z,79.34
2023-03-15T20:49:12.182Z,78.63
2023-03-15T20:51:40.164Z,78.64
2023-03-15T20:54:08.172Z,78.70
2023-03-15T20:56:36.858Z,78.23
2023-03-15T20:59:06.198Z,78.73
2023-03-15T21:01:34.568Z,77.86
2023-03-15T21:04:02.494Z,78.00
2023-03-15T21:06:30.515Z,77.90
2023-03-15T21:08:58.465Z,77.55
2023-03-15T21:11:26.446Z,78.62
2023-03-15T21:13:54.618Z,77.91
2023-03-15T21:16:25.987Z,76.93
2023-03-15T21:18:54.969Z,76.41
2023-03-15T21:21:23.176Z,76.54
2023-03-15T21:23:51.094Z,75.99
2023-03-15T21:26:19.073Z,76.77
2023-03-15T21:28:47.116Z,75.91
2023-03-15T21:31:15.482Z,76.61
2023-03-15T21:33:44.802Z,76.98
2023-03-15T21:36:12.773Z,77.17
2023-03-15T21:38:40.914Z,76.94
2023-03-15T21:41:09.404Z,76.87
2023-03-15T21:43:37.555Z,76.46
2023-03-15T21:46:07.222Z,76.79
2023-03-15T21:48:35.444Z,76.56
2023-03-15T21:51:04.967Z,77.41
2023-03-15T21:53:34.033Z,78.07
2023-03-15T21:56:02.153Z,78.28
2023-03-15T21:58:30.277Z,78.11
2023-03-15T22:00:59.422Z,78.63
2023-03-15T22:03:27.566Z,79.32
2023-03-15T22:05:55.577Z,78.52
2023-03-15T22:08:24.921Z,78.32
2023-03-15T22:10:54.167Z,78.82
2023-03-15T22:13:22.132Z,78.51
2023-03-15T22:15:50.103Z,78.97
2023-03-15T22:18:18.025Z,79.17
2023-03-15T22:20:47.716Z,78.63
2023-03-15T22:23:15.695Z,79.90
2023-03-15T22:25:44.973Z,79.62
2023-03-15T22:28:12.990Z,79.13
2023-03-15T22:30:41.074Z,80.38
2023-03-15T22:33:09.765Z,79.88
2023-03-15T22:35:37.727Z,79.93
2023-03-15T22:38:10.125Z,79.79
2023-03-15T22:40:39.068Z,80.37
2023-03-15T22:43:08.672Z,80.66
2023-03-15T22:45:36.686Z,80.95
2023-03-15T22:48:04.690Z,82.03
2023-03-15T22:50:32.658Z,81.67
2023-03-15T22:53:00.569Z,81.86
2023-03-15T22:55:28.516Z,81.55
2023-03-15T22:57:56.462Z,81.55
2023-03-15T23:00:26.199Z,81.30
2023-03-15T23:02:54.352Z,81.53
2023-03-15T23:05:22.330Z,82.69
2023-03-15T23:07:50.296Z,82.41
2023-03-15T23:10:18.217Z,82.43
2023-03-15T23:12:46.177Z,81.83
2023-03-15T23:15:14.571Z,82.44
2023-03-15T23:17:46.515Z,83.37
2023-03-15T23:20:15.492Z,82.19
2023-03-15T23:22:43.485Z,81.85
2023-03-15T23:25:13.066Z,81.39
2023-03-15T23:27:41.095Z,81.88
2023-03-15T23:30:10.512Z,81.92
2023-03-15T23:32:38.537Z,81.11
2023-03-15T23:35:09.361Z,81.02
2023-03-15T23:37:37.260Z,80.66
2023-03-15T23:40:11.340Z,81.29
2023-03-15T23:42:39.262Z,79.94
2023-03-15T23:45:08.390Z,79.93
2023-03-15T23:47:36.412Z,79.97
2023-03-15T23:50:04.370Z,79.46
2023-03-15T23:52:33.721Z,80.54
2023-03-15T23:55:01.688Z,79.82
2023-03-15T23:57:29.617Z,79.01
2023-03-15T23:59:57.511Z,78.44
